Time;durP1;ratioP1;P1;durP2;ratioP2;P2;SDS_P1;SDS_P2;PMS_P1;PMS_P2;Temp;Humidity;BMP_temperature;BMP_pressure;BME280_temperature;BME280_humidity;BME280_pressure;Samples;Min_cycle;Max_cycle;Signal;HPM_P1;HPM_P2
2022/01/18 00:01:53;;;;;;;10.88;4.35;;;102.60;2227.20;;;;;;4899595;29;20019;-80
2022/01/18 00:04:20;;;;;;;16.20;5.90;;;102.40;2227.20;;;;;;4899150;29;20036;-75
2022/01/18 00:06:50;;;;;;;11.73;4.40;;;102.60;2227.20;;;;;;4915105;29;20032;-75
2022/01/18 00:09:20;;;;;;;15.32;6.18;;;102.50;2227.20;;;;;;4918082;29;20028;-77
2022/01/18 00:11:54;;;;;;;16.40;4.97;;;102.50;2227.20;;;;;;4903343;29;20182;-87
2022/01/18 00:14:26;;;;;;;16.20;5.82;;;102.50;2227.20;;;;;;4919703;29;20032;-78
2022/01/18 00:19:55;;;;;;;15.27;6.82;;;102.50;2227.20;;;;;;4879812;29;20033;-87
2022/01/18 00:22:24;;;;;;;10.18;4.68;;;102.50;2227.20;;;;;;4880245;29;20613;-83
2022/01/18 00:24:51;;;;;;;12.75;5.07;;;102.50;2227.20;;;;;;4880073;29;20036;-87
2022/01/18 00:27:17;;;;;;;11.13;5.10;;;102.60;2227.20;;;;;;4880282;29;20029;-76
2022/01/18 00:31:04;;;;;;;14.88;5.05;;;102.60;2227.20;;;;;;4879725;29;20045;-76
2022/01/18 00:35:34;;;;;;;9.82;4.70;;;102.70;2227.20;;;;;;4865524;29;20265;-84
2022/01/18 00:38:00;;;;;;;9.55;4.82;;;102.60;2227.20;;;;;;4864179;29;20061;-76
2022/01/18 00:40:26;;;;;;;;;;;102.60;2227.20;;;;;;4880322;29;20094;-84
2022/01/18 00:42:51;;;;;;;10.77;6.22;;;102.60;2227.20;;;;;;4864472;29;19912;-82
2022/01/18 00:45:17;;;;;;;;;;;102.70;2227.20;;;;;;4880283;29;20398;-85
2022/01/18 00:47:43;;;;;;;8.88;2.88;;;102.50;2227.20;;;;;;4879883;29;19998;-86
2022/01/18 00:50:10;;;;;;;11.35;3.55;;;102.40;2227.20;;;;;;4879905;29;20383;-79
2022/01/18 00:52:41;;;;;;;8.70;4.50;;;102.50;2227.20;;;;;;4879486;29;20040;-77
2022/01/18 00:55:07;;;;;;;7.57;3.47;;;102.70;2227.20;;;;;;4890219;29;20403;-85
2022/01/18 00:57:33;;;;;;;7.53;4.28;;;102.80;2227.20;;;;;;4902265;29;20039;-80
2022/01/18 00:59:59;;;;;;;14.80;4.70;;;102.80;2227.20;;;;;;4919389;29;20028;-76
2022/01/18 01:02:25;;;;;;;;;;;102.90;2227.20;;;;;;4919077;29;20481;-83
2022/01/18 01:04:50;;;;;;;10.20;3.88;;;102.70;2227.20;;;;;;4918859;29;20308;-83
2022/01/18 01:07:19;;;;;;;9.70;4.22;;;102.70;2227.20;;;;;;4918830;29;20504;-87
2022/01/18 01:09:45;;;;;;;10.73;4.55;;;102.80;2227.20;;;;;;4902206;29;20032;-84
2022/01/18 01:12:12;;;;;;;7.10;3.22;;;102.80;2227.20;;;;;;4901917;29;20257;-87
2022/01/18 01:14:41;;;;;;;26.67;14.82;;;102.70;2227.20;;;;;;4919312;29;20484;-86
2022/01/18 01:31:56;;;;;;;9.70;3.63;;;102.80;2227.20;;;;;;4918461;29;20040;-82
2022/01/18 01:34:11;;;;;;;4.53;2.88;;;102.60;2227.20;;;;;;4918178;29;20504;-75
2022/01/18 01:44:48;;;;;;;10.32;4.22;;;77.50;2227.20;;;;;;4878337;29;20128;-75
2022/01/18 01:47:22;;;;;;;10.07;3.22;;;77.50;2227.20;;;;;;4878822;29;20246;-86
2022/01/18 01:49:51;;;;;;;7.78;2.88;;;77.50;2227.20;;;;;;4862534;29;20033;-77
2022/01/18 01:52:19;;;;;;;11.05;4.13;;;77.50;2227.20;;;;;;4878878;29;20075;-87
2022/01/18 01:54:45;;;;;;;7.45;2.90;;;77.50;2227.20;;;;;;4878008;29;20048;-86
2022/01/18 01:57:11;;;;;;;;;;;77.30;2227.20;;;;;;4879093;29;20224;-76
2022/01/18 01:59:38;;;;;;;6.15;2.60;;;77.30;2227.20;;;;;;4878035;29;20003;-76
2022/01/18 02:02:04;;;;;;;8.63;3.08;;;77.30;2227.20;;;;;;4878332;29;20025;-76
2022/01/18 02:04:30;;;;;;;;;;;77.20;2227.20;;;;;;4878667;29;20031;-76
2022/01/18 02:06:55;;;;;;;10.50;2.75;;;77.30;2227.20;;;;;;4862810;29;19994;-75
2022/01/18 02:09:21;;;;;;;;;;;77.30;2227.20;;;;;;4863340;29;20041;-85
2022/01/18 02:11:49;;;;;;;8.70;3.50;;;77.40;2227.20;;;;;;4877945;29;19983;-86
2022/01/18 02:14:19;;;;;;;9.15;3.03;;;77.40;2227.20;;;;;;4878171;29;20040;-86
2022/01/18 02:22:15;;;;;;;8.48;3.13;;;77.40;2227.20;;;;;;4917906;29;20091;-76
2022/01/18 02:24:41;;;;;;;5.43;2.45;;;77.60;2227.20;;;;;;4900893;29;20032;-84
2022/01/18 02:27:06;;;;;;;;;;;77.40;2227.20;;;;;;4901335;29;20061;-87
2022/01/18 02:29:32;;;;;;;8.25;2.85;;;77.40;2227.20;;;;;;4917136;29;19966;-83
2022/01/18 02:31:58;;;;;;;;;;;77.40;2227.20;;;;;;4916704;29;20036;-75
2022/01/18 02:34:24;;;;;;;6.65;2.92;;;77.40;2227.20;;;;;;4917024;29;19915;-78
2022/01/18 02:36:53;;;;;;;10.48;2.85;;;77.40;2227.20;;;;;;4917026;29;20114;-76
2022/01/18 02:39:21;;;;;;;6.20;2.78;;;77.40;2227.20;;;;;;4916665;29;20063;-76
2022/01/18 02:42:03;;;;;;;5.70;2.60;;;77.30;2227.20;;;;;;4917152;29;20029;-88
2022/01/18 02:44:30;;;;;;;6.00;2.45;;;77.50;2227.20;;;;;;4917407;29;20024;-77
2022/01/18 02:46:56;;;;;;;7.85;3.78;;;77.40;2227.20;;;;;;4917232;29;20027;-76
2022/01/18 02:49:22;;;;;;;5.95;2.35;;;77.40;2227.20;;;;;;4917191;29;20087;-80
2022/01/18 02:51:49;;;;;;;;;;;77.40;2227.20;;;;;;4900657;29;20024;-77
2022/01/18 02:54:17;;;;;;;6.88;2.67;;;77.40;2227.20;;;;;;4900895;29;19955;-86
2022/01/18 02:56:58;;;;;;;6.40;2.50;;;77.40;2227.20;;;;;;4900216;29;20378;-77
2022/01/18 02:59:31;;;;;;;7.95;3.25;;;77.40;2227.20;;;;;;4921039;29;20024;-77
2022/01/18 03:04:44;;;;;;;10.77;3.92;;;77.60;2227.20;;;;;;4918731;29;20042;-76
2022/01/18 03:07:11;;;;;;;8.02;3.15;;;77.60;2227.20;;;;;;4917374;29;20076;-86
2022/01/18 03:09:37;;;;;;;9.65;4.07;;;77.60;2227.20;;;;;;4917404;29;20031;-83
2022/01/18 03:12:03;;;;;;;;;;;102.50;2227.20;;;;;;4916877;29;20108;-76
2022/01/18 03:14:29;;;;;;;10.77;4.65;;;102.50;2227.20;;;;;;4916830;29;19915;-76
2022/01/18 03:16:55;;;;;;;;;;;102.70;2227.20;;;;;;4917159;29;20032;-84
2022/01/18 03:19:21;;;;;;;13.55;4.30;;;102.80;2227.20;;;;;;4900306;29;19997;-82
2022/01/18 03:21:46;;;;;;;;;;;103.00;2227.20;;;;;;4917041;29;20457;-75
2022/01/18 03:24:32;;;;;;;8.60;3.58;;;103.00;2227.20;;;;;;4899829;29;20034;-76
2022/01/18 03:29:42;;;;;;;12.63;4.07;;;103.00;2227.20;;;;;;4917009;29;20448;-76
2022/01/18 03:32:08;;;;;;;8.57;3.00;;;103.10;2227.20;;;;;;4899658;29;20040;-88
2022/01/18 03:34:34;;;;;;;8.77;2.65;;;103.10;2227.20;;;;;;4916850;29;20095;-79
2022/01/18 03:37:00;;;;;;;9.43;3.10;;;103.10;2227.20;;;;;;4916434;29;20381;-77
2022/01/18 03:39:25;;;;;;;9.63;3.28;;;103.20;2227.20;;;;;;4899709;29;20060;-75
2022/01/18 03:41:55;;;;;;;;;;;103.10;2227.20;;;;;;4916724;29;20033;-86
2022/01/18 03:44:24;;;;;;;9.98;3.80;;;103.00;2227.20;;;;;;4902216;29;20061;-79
2022/01/18 03:46:50;;;;;;;10.52;3.85;;;102.90;2227.20;;;;;;4920215;29;20083;-76
2022/01/18 03:49:19;;;;;;;8.18;3.33;;;102.90;2227.20;;;;;;4903688;29;20020;-86
2022/01/18 03:51:44;;;;;;;9.90;3.53;;;103.00;2227.20;;;;;;4919337;29;20028;-85
2022/01/18 03:54:13;;;;;;;5.85;2.55;;;103.00;2227.20;;;;;;4903536;29;20041;-86
2022/01/18 03:56:38;;;;;;;7.50;3.03;;;102.90;2227.20;;;;;;4902196;29;20075;-77
2022/01/18 03:59:04;;;;;;;9.55;2.97;;;102.90;2227.20;;;;;;4918656;29;20416;-86
2022/01/18 04:01:30;;;;;;;15.32;4.30;;;103.00;2227.20;;;;;;4919394;29;20115;-85
2022/01/18 04:03:55;;;;;;;;;;;102.80;2227.20;;;;;;4920719;29;20398;-84
2022/01/18 04:06:21;;;;;;;12.10;3.22;;;102.90;2227.20;;;;;;4920425;29;19922;-82
2022/01/18 04:08:47;;;;;;;;;;;102.70;2227.20;;;;;;4903406;29;20408;-81
2022/01/18 04:11:12;;;;;;;12.48;3.90;;;102.50;2227.20;;;;;;4903152;29;19942;-77
2022/01/18 04:13:38;;;;;;;;;;;102.50;2227.20;;;;;;4903031;29;20374;-75
2022/01/18 04:16:04;;;;;;;12.98;4.50;;;102.50;2227.20;;;;;;4902220;29;19907;-76
2022/01/18 04:18:58;;;;;;;;;;;102.40;2227.20;;;;;;4903380;29;20051;-75
2022/01/18 04:29:11;;;;;;;9.40;4.07;;;102.80;2227.20;;;;;;4919386;29;20103;-81
2022/01/18 04:31:37;;;;;;;9.40;4.82;;;102.90;2227.20;;;;;;4919466;29;20035;-76
2022/01/18 04:34:03;;;;;;;10.98;3.67;;;102.80;2227.20;;;;;;4919328;29;20040;-76
2022/01/18 04:36:29;;;;;;;7.07;3.90;;;102.80;2227.20;;;;;;4919664;29;20388;-76
2022/01/18 04:38:55;;;;;;;13.38;4.85;;;102.80;2227.20;;;;;;4902184;29;20052;-85
2022/01/18 04:41:27;;;;;;;10.10;4.38;;;102.80;2227.20;;;;;;4902339;29;20473;-76
2022/01/18 04:49:11;;;;;;;10.60;3.70;;;102.70;2227.20;;;;;;4919304;29;20083;-75
2022/01/18 04:51:38;;;;;;;8.13;3.13;;;102.70;2227.20;;;;;;4919288;29;20087;-85
2022/01/18 04:54:07;;;;;;;8.13;3.28;;;102.60;2227.20;;;;;;4902046;29;20032;-75
2022/01/18 04:59:05;;;;;;;8.13;2.67;;;102.50;2227.20;;;;;;4919291;29;20170;-84
2022/01/18 05:01:30;;;;;;;8.50;3.15;;;102.50;2227.20;;;;;;4902195;29;20032;-77
2022/01/18 05:03:56;;;;;;;6.68;2.55;;;102.40;2227.20;;;;;;4918984;29;20024;-84
2022/01/18 05:06:22;;;;;;;6.85;2.55;;;102.40;2227.20;;;;;;4918734;29;20036;-75
2022/01/18 05:08:49;;;;;;;11.25;2.50;;;77.60;2227.20;;;;;;4902133;29;20564;-77
2022/01/18 05:11:18;;;;;;;5.93;2.05;;;77.50;2227.20;;;;;;4918777;29;20037;-85
2022/01/18 05:14:06;;;;;;;6.15;2.40;;;77.40;2227.20;;;;;;4917841;29;20044;-75
2022/01/18 05:22:57;;;;;;;7.88;2.50;;;77.40;2227.20;;;;;;4918969;29;20024;-76
2022/01/18 05:24:25;;;;;;;6.87;2.10;;;77.30;2227.20;;;;;;4918162;29;20111;-82
2022/01/18 05:26:52;;;;;;;4.82;2.50;;;77.30;2227.20;;;;;;4901998;29;20392;-76
2022/01/18 05:29:18;;;;;;;7.72;2.58;;;77.30;2227.20;;;;;;4918855;29;20059;-76
2022/01/18 05:31:44;;;;;;;7.78;2.42;;;77.40;2227.20;;;;;;4901690;29;20056;-75
2022/01/18 05:34:10;;;;;;;;;;;77.40;2227.20;;;;;;4902020;29;20036;-75
2022/01/18 05:36:36;;;;;;;5.87;2.30;;;77.20;2227.20;;;;;;4918371;29;19907;-76
2022/01/18 05:39:03;;;;;;;;;;;77.00;2227.20;;;;;;4918917;29;20286;-77
2022/01/18 05:41:29;;;;;;;6.18;1.85;;;76.90;2227.20;;;;;;4918449;29;19911;-76
2022/01/18 05:43:54;;;;;;;;;;;76.80;2227.20;;;;;;4917614;29;20032;-75
2022/01/18 05:46:20;;;;;;;3.88;1.75;;;52.10;2227.20;;;;;;4918152;29;19998;-80
2022/01/18 05:48:46;;;;;;;;;;;52.10;2227.20;;;;;;4902808;29;20040;-88
2022/01/18 05:51:12;;;;;;;7.82;2.83;;;52.10;2227.20;;;;;;4901621;29;20051;-77
2022/01/18 05:53:39;;;;;;;9.80;3.08;;;52.00;2227.20;;;;;;4918438;29;20024;-89
2022/01/18 05:56:08;;;;;;;11.80;2.65;;;52.10;2227.20;;;;;;4918722;29;20031;-76
2022/01/18 05:58:33;;;;;;;9.07;2.60;;;52.10;2227.20;;;;;;4918256;29;20162;-91
2022/01/18 06:00:59;;;;;;;6.57;2.25;;;76.80;2227.20;;;;;;4911876;29;20136;-90
2022/01/18 06:03:28;;;;;;;;;;;52.10;2227.20;;;;;;4907833;29;20029;-90
2022/01/18 06:08:40;;;;;;;8.05;3.50;;;77.00;2227.20;;;;;;4908719;29;20099;-89
2022/01/18 06:11:05;;;;;;;;;;;76.90;2227.20;;;;;;4889182;29;20119;-86
2022/01/18 06:13:31;;;;;;;12.85;5.00;;;76.80;2227.20;;;;;;4909643;29;19915;-90
2022/01/18 06:15:57;;;;;;;;;;;76.80;2227.20;;;;;;4918806;29;20017;-89
2022/01/18 06:18:22;;;;;;;55.40;21.63;;;76.80;2227.20;;;;;;4911852;29;20282;-76
2022/01/18 06:20:49;;;;;;;;;;;76.90;2227.20;;;;;;4904959;29;20032;-90
2022/01/18 06:23:15;;;;;;;14.57;5.07;;;77.00;2227.20;;;;;;4901796;29;19915;-90
2022/01/18 06:25:41;;;;;;;;;;;76.90;2227.20;;;;;;4899027;29;20087;-89
2022/01/18 06:28:07;;;;;;;19.92;6.03;;;77.00;2227.20;;;;;;4890514;29;19914;-76
2022/01/18 06:30:33;;;;;;;24.70;7.82;;;77.00;2227.20;;;;;;4891564;29;20039;-85
2022/01/18 06:32:59;;;;;;;;;;;76.90;2227.20;;;;;;4910632;29;20437;-75
2022/01/18 06:35:25;;;;;;;67.10;28.13;;;77.00;2227.20;;;;;;4917671;29;19911;-76
2022/01/18 06:37:50;;;;;;;;;;;76.90;2227.20;;;;;;4917495;29;20063;-91
2022/01/18 06:40:16;;;;;;;24.50;14.30;;;76.90;2227.20;;;;;;4900770;29;19907;-91
2022/01/18 06:42:43;;;;;;;21.30;11.35;;;76.90;2227.20;;;;;;4900479;29;20077;-76
2022/01/18 06:45:10;;;;;;;27.35;11.48;;;77.00;2227.20;;;;;;4900535;29;20032;-76
2022/01/18 06:47:37;;;;;;;20.20;9.63;;;76.90;2227.20;;;;;;4917503;29;20026;-77
2022/01/18 06:50:07;;;;;;;23.08;10.07;;;77.00;2227.20;;;;;;4917523;29;20028;-76
2022/01/18 06:52:33;;;;;;;23.17;8.18;;;77.10;2227.20;;;;;;4903058;29;20021;-76
2022/01/18 06:55:01;;;;;;;;;;;77.10;2227.20;;;;;;4882158;29;20047;-92
2022/01/18 06:57:27;;;;;;;25.35;9.38;;;77.10;2227.20;;;;;;4881595;29;19912;-92
2022/01/18 06:59:53;;;;;;;30.95;10.40;;;77.30;2227.20;;;;;;4881325;29;20096;-76
2022/01/18 07:02:19;;;;;;;;;;;77.30;2227.20;;;;;;4898622;29;20029;-76
2022/01/18 07:04:44;;;;;;;26.00;10.38;;;77.30;2227.20;;;;;;4894342;29;19911;-89
2022/01/18 07:07:10;;;;;;;17.98;8.32;;;77.20;2227.20;;;;;;4905384;29;20028;-84
2022/01/18 07:09:36;;;;;;;15.65;8.07;;;77.30;2227.20;;;;;;4889621;29;20029;-91
2022/01/18 07:12:08;;;;;;;18.88;7.68;;;77.30;2227.20;;;;;;4889596;29;20036;-76
2022/01/18 07:14:33;;;;;;;13.93;5.20;;;77.30;2227.20;;;;;;4899842;29;20036;-76
2022/01/18 07:16:59;;;;;;;15.20;5.40;;;77.40;2227.20;;;;;;4917135;29;20408;-75
2022/01/18 07:19:25;;;;;;;11.00;4.25;;;77.50;2227.20;;;;;;4916295;29;20036;-85
2022/01/18 07:21:50;;;;;;;;;;;77.50;2227.20;;;;;;4917222;29;20486;-85
2022/01/18 07:24:18;;;;;;;12.18;5.65;;;77.60;2227.20;;;;;;4916802;29;19907;-88
2022/01/18 07:26:46;;;;;;;11.23;3.95;;;77.50;2227.20;;;;;;4915354;29;20167;-82
2022/01/18 07:29:13;;;;;;;12.85;4.50;;;77.40;2227.20;;;;;;4916841;29;20571;-80
2022/01/18 07:31:39;;;;;;;19.70;5.78;;;77.40;2227.20;;;;;;4916662;29;20513;-75
2022/01/18 07:34:05;;;;;;;10.40;4.32;;;77.30;2227.20;;;;;;4916917;29;20040;-78
2022/01/18 07:36:31;;;;;;;14.73;5.60;;;77.40;2227.20;;;;;;4916472;29;20445;-86
2022/01/18 07:38:56;;;;;;;;;;;77.50;2227.20;;;;;;4916789;29;20052;-85
2022/01/18 07:41:23;;;;;;;17.67;6.68;;;77.60;2227.20;;;;;;4914109;29;19915;-84
2022/01/18 07:43:48;;;;;;;15.27;5.22;;;77.70;2227.20;;;;;;4916676;29;20032;-86
2022/01/18 07:46:14;;;;;;;13.18;4.55;;;77.60;2227.20;;;;;;4916346;29;20033;-88
2022/01/18 07:48:40;;;;;;;;;;;77.50;2227.20;;;;;;4881940;29;20124;-76
2022/01/18 07:51:06;;;;;;;14.95;4.47;;;77.70;2227.20;;;;;;4897956;29;19908;-79
2022/01/18 07:53:32;;;;;;;11.65;5.60;;;77.60;2227.20;;;;;;4903498;29;20042;-85
2022/01/18 07:55:57;;;;;;;;;;;77.70;2227.20;;;;;;4916890;29;20040;-83
2022/01/18 07:58:23;;;;;;;11.82;4.45;;;102.40;2227.20;;;;;;4914925;29;19907;-77
2022/01/18 08:00:49;;;;;;;;;;;77.60;2227.20;;;;;;4917073;29;20028;-76
2022/01/18 08:03:14;;;;;;;18.20;6.72;;;77.70;2227.20;;;;;;4916192;29;19944;-75
2022/01/18 08:05:40;;;;;;;;;;;102.40;2227.20;;;;;;4899994;29;20039;-75
2022/01/18 08:08:06;;;;;;;12.57;4.70;;;102.40;2227.20;;;;;;4916416;29;19938;-76
2022/01/18 08:10:33;;;;;;;12.02;4.90;;;77.70;2227.20;;;;;;4916374;29;20024;-80
2022/01/18 08:13:02;;;;;;;16.00;5.82;;;102.40;2227.20;;;;;;4916109;29;20038;-82
2022/01/18 08:15:40;;;;;;;12.95;5.07;;;77.70;2227.20;;;;;;4896978;29;20040;-91
2022/01/18 08:18:13;;;;;;;14.02;5.63;;;77.70;2227.20;;;;;;4896303;29;20039;-74
2022/01/18 08:20:39;;;;;;;20.50;7.72;;;77.40;2227.20;;;;;;4897153;29;20029;-75
2022/01/18 08:23:05;;;;;;;19.58;7.05;;;77.70;2227.20;;;;;;4880664;29;20101;-84
2022/01/18 08:25:30;;;;;;;;;;;77.70;2227.20;;;;;;4897603;29;20111;-86
2022/01/18 08:27:57;;;;;;;15.65;5.30;;;102.50;2227.20;;;;;;4904917;29;20558;-86
2022/01/18 08:30:23;;;;;;;18.40;7.00;;;102.50;2227.20;;;;;;4891171;29;20523;-82
2022/01/18 08:32:50;;;;;;;17.17;6.57;;;77.70;2227.20;;;;;;4910978;29;20056;-84
2022/01/18 08:35:17;;;;;;;13.73;6.05;;;102.50;2227.20;;;;;;4915394;29;20048;-74
2022/01/18 08:37:43;;;;;;;14.40;5.05;;;102.50;2227.20;;;;;;4912397;29;20084;-83
2022/01/18 08:40:09;;;;;;;12.40;4.65;;;102.60;2227.20;;;;;;4920981;29;20032;-82
2022/01/18 08:42:35;;;;;;;13.85;4.32;;;77.60;2227.20;;;;;;4903710;29;20115;-82
2022/01/18 08:45:01;;;;;;;16.67;5.25;;;77.70;2227.20;;;;;;4939017;29;20540;-84
2022/01/18 08:47:27;;;;;;;;;;;77.60;2227.20;;;;;;4938986;29;20110;-83
2022/01/18 08:49:53;;;;;;;15.45;5.22;;;77.70;2227.20;;;;;;4922947;29;20368;-83
2022/01/18 08:52:18;;;;;;;;;;;102.60;2227.20;;;;;;4919544;29;20032;-78
2022/01/18 08:54:44;;;;;;;13.27;6.97;;;102.50;2227.20;;;;;;4901520;29;19920;-82
2022/01/18 08:57:12;;;;;;;23.80;4.55;;;102.40;2227.20;;;;;;4900731;29;20164;-81
2022/01/18 08:59:39;;;;;;;15.75;4.50;;;102.50;2227.20;;;;;;4888343;29;20040;-80
2022/01/18 09:02:07;;;;;;;17.10;6.65;;;102.50;2227.20;;;;;;4896511;29;20384;-77
2022/01/18 09:04:33;;;;;;;16.20;6.25;;;102.60;2227.20;;;;;;4910365;29;20024;-79
2022/01/18 09:07:05;;;;;;;19.48;6.82;;;102.50;2227.20;;;;;;4902265;29;20035;-82
2022/01/18 09:09:31;;;;;;;11.68;4.63;;;102.50;2227.20;;;;;;4930517;29;20032;-79
2022/01/18 09:11:57;;;;;;;18.67;6.13;;;102.50;2227.20;;;;;;4938150;29;20353;-82
2022/01/18 09:14:23;;;;;;;15.70;5.45;;;102.50;2227.20;;;;;;4920664;29;20047;-82
2022/01/18 09:16:49;;;;;;;16.63;5.57;;;102.50;2227.20;;;;;;4937910;29;20023;-82
2022/01/18 09:19:16;;;;;;;17.13;6.45;;;102.50;2227.20;;;;;;4938087;29;20365;-77
2022/01/18 09:21:44;;;;;;;17.60;7.30;;;102.50;2227.20;;;;;;4920408;29;20039;-77
2022/01/18 09:24:10;;;;;;;18.45;6.85;;;102.70;2227.20;;;;;;4913660;29;20034;-76
2022/01/18 09:26:36;;;;;;;;;;;102.70;2227.20;;;;;;4907153;29;20435;-76
2022/01/18 09:29:02;;;;;;;24.95;7.40;;;102.80;2227.20;;;;;;4892614;29;19911;-78
2022/01/18 09:31:29;;;;;;;18.55;6.65;;;102.80;2227.20;;;;;;4901715;29;20048;-77
2022/01/18 09:33:55;;;;;;;16.48;4.90;;;102.80;2227.20;;;;;;4904283;29;20036;-78
2022/01/18 09:36:21;;;;;;;13.13;5.13;;;102.80;2227.20;;;;;;4904640;29;20027;-78
2022/01/18 09:38:46;;;;;;;;;;;103.00;2227.20;;;;;;4900000;29;20061;-77
2022/01/18 09:41:13;;;;;;;15.02;5.53;;;103.00;2227.20;;;;;;4898369;29;19919;-77
2022/01/18 09:43:41;;;;;;;18.92;5.43;;;103.10;2227.20;;;;;;4922851;29;20028;-79
2022/01/18 09:46:07;;;;;;;32.03;7.90;;;103.30;2227.20;;;;;;4937413;29;20020;-80
2022/01/18 09:48:33;;;;;;;22.55;6.88;;;103.20;2227.20;;;;;;4935530;29;20023;-79
2022/01/18 09:50:59;;;;;;;;;;;103.30;2227.20;;;;;;4908250;29;20024;-78
2022/01/18 09:53:26;;;;;;;14.77;5.40;;;128.20;2252.80;;;;;;4892997;29;20287;-82
2022/01/18 09:55:53;;;;;;;28.63;7.20;;;128.50;2252.80;;;;;;4893175;29;20036;-75
2022/01/18 09:58:20;;;;;;;25.02;9.70;;;128.30;2252.80;;;;;;4891056;29;20032;-80
2022/01/18 10:00:48;;;;;;;22.95;7.85;;;128.20;2252.80;;;;;;4892239;29;20073;-80
2022/01/18 10:03:35;;;;;;;22.92;7.43;;;128.40;2252.80;;;;;;4892531;29;20029;-87
2022/01/18 10:06:02;;;;;;;;;;;128.20;2252.80;;;;;;4912715;29;20020;-81
2022/01/18 10:08:28;;;;;;;12.57;4.78;;;128.70;2252.80;;;;;;4909651;29;19994;-81
2022/01/18 10:11:17;;;;;;;23.40;7.00;;;153.80;2252.80;;;;;;4907032;29;20052;-81
2022/01/18 10:13:45;;;;;;;20.15;6.88;;;153.80;2252.80;;;;;;4909611;29;20032;-77
2022/01/18 10:16:21;;;;;;;24.52;10.20;;;153.60;2252.80;;;;;;4907200;29;20072;-80
2022/01/18 10:18:52;;;;;;;24.33;8.82;;;153.70;2252.80;;;;;;4906672;29;20028;-82
2022/01/18 10:21:35;;;;;;;26.45;10.32;;;153.70;2252.80;;;;;;4909299;29;20024;-81
2022/01/18 10:24:21;;;;;;;17.33;6.10;;;153.90;2252.80;;;;;;4891803;29;20060;-83
2022/01/18 10:26:48;;;;;;;30.92;8.18;;;153.60;2252.80;;;;;;4908628;29;20017;-81
2022/01/18 10:29:15;;;;;;;28.75;10.77;;;128.90;2252.80;;;;;;4905813;29;20112;-81
2022/01/18 10:37:16;;;;;;;15.77;6.33;;;153.80;2252.80;;;;;;4907746;29;20040;-92
2022/01/18 10:39:47;;;;;;;16.48;6.50;;;154.00;2252.80;;;;;;4909475;29;20379;-81
2022/01/18 10:42:32;;;;;;;20.38;6.55;;;154.30;2252.80;;;;;;4893001;29;20115;-75
2022/01/18 10:45:10;;;;;;;17.67;7.03;;;154.20;2252.80;;;;;;4911866;29;20069;-79
2022/01/18 10:47:37;;;;;;;16.80;5.63;;;179.30;2227.20;;;;;;4910762;29;20051;-76
2022/01/18 10:50:21;;;;;;;15.30;5.38;;;179.20;2201.60;;;;;;4891458;29;20036;-79
2022/01/18 10:52:47;;;;;;;14.50;5.65;;;179.30;2227.20;;;;;;4907039;29;20029;-84
2022/01/18 10:55:24;;;;;;;16.77;6.53;;;179.30;2227.20;;;;;;4901444;29;20044;-81
2022/01/18 10:57:51;;;;;;;16.67;4.50;;;179.40;2201.60;;;;;;4907458;29;20024;-94
2022/01/18 11:00:22;;;;;;;16.98;5.53;;;179.60;2176.00;;;;;;4894172;29;20040;-79
2022/01/18 11:02:55;;;;;;;14.68;5.32;;;179.60;2150.40;;;;;;4906801;29;20172;-81
2022/01/18 11:05:22;;;;;;;12.60;5.60;;;179.20;2176.00;;;;;;4906634;29;20033;-83
2022/01/18 11:07:49;;;;;;;18.17;5.80;;;179.50;2150.40;;;;;;4906405;29;20032;-82
2022/01/18 11:10:18;;;;;;;23.13;7.10;;;179.60;2150.40;;;;;;4891001;29;20083;-80
2022/01/18 11:13:01;;;;;;;22.38;7.82;;;179.60;2150.40;;;;;;4907268;29;20024;-86
2022/01/18 11:15:28;;;;;;;20.35;6.20;;;179.70;2124.80;;;;;;4909752;29;20044;-83
2022/01/18 11:17:58;;;;;;;15.73;6.80;;;179.40;2150.40;;;;;;4911657;29;20103;-83
2022/01/18 11:20:29;;;;;;;15.65;5.65;;;179.80;2124.80;;;;;;4905356;29;20036;-83
2022/01/18 11:22:56;;;;;;;16.20;6.75;;;179.80;2124.80;;;;;;4908274;29;20481;-85
2022/01/18 11:25:22;;;;;;;14.68;6.38;;;204.80;2099.20;;;;;;4889771;29;20481;-84
2022/01/18 11:27:52;;;;;;;15.85;5.75;;;205.00;2073.60;;;;;;4907926;29;20078;-83
2022/01/18 11:30:20;;;;;;;16.02;5.53;;;180.10;2048.00;;;;;;4906462;29;20035;-83
2022/01/18 11:32:46;;;;;;;16.42;4.65;;;180.10;2073.60;;;;;;4890026;29;20068;-84
2022/01/18 11:35:25;;;;;;;15.65;5.88;;;180.00;2099.20;;;;;;4891494;29;20078;-84
2022/01/18 11:38:22;;;;;;;12.77;5.97;;;204.80;2099.20;;;;;;4907880;29;20545;-85
2022/01/18 11:40:53;;;;;;;15.18;6.60;;;179.90;2048.00;;;;;;4907161;29;20056;-83
2022/01/18 11:43:37;;;;;;;16.58;6.10;;;180.00;2022.40;;;;;;4908025;29;20059;-85
2022/01/18 11:46:30;;;;;;;16.08;5.68;;;204.90;1996.80;;;;;;4917174;29;20036;-84
2022/01/18 11:49:03;;;;;;;16.02;6.38;;;204.90;1971.20;;;;;;4917441;29;20063;-84
2022/01/18 11:52:03;;;;;;;13.48;5.78;;;180.10;1996.80;;;;;;4899631;29;20036;-85
2022/01/18 11:54:43;;;;;;;25.63;7.28;;;179.80;2048.00;;;;;;4859035;29;20084;-85
2022/01/18 11:57:21;;;;;;;23.08;7.65;;;205.00;2022.40;;;;;;4859004;29;20066;-82
2022/01/18 11:59:49;;;;;;;26.30;9.52;;;204.80;1996.80;;;;;;4858857;29;20034;-84
2022/01/18 12:02:37;;;;;;;16.33;6.43;;;205.00;1996.80;;;;;;4858548;29;20601;-82
2022/01/18 12:05:13;;;;;;;24.48;7.30;;;205.00;1971.20;;;;;;4860129;29;20045;-84
2022/01/18 12:07:43;;;;;;;19.77;7.53;;;204.80;1996.80;;;;;;4861965;29;20118;-76
2022/01/18 12:10:38;;;;;;;19.23;7.43;;;205.20;1971.20;;;;;;4843375;29;20078;-78
2022/01/18 12:13:10;;;;;;;17.80;7.45;;;205.40;1945.60;;;;;;4853949;29;20034;-78
2022/01/18 12:15:38;;;;;;;27.50;8.68;;;205.40;1971.20;;;;;;4853951;29;20510;-80
2022/01/18 12:18:10;;;;;;;29.65;8.27;;;205.20;1996.80;;;;;;4851239;29;20025;-79
2022/01/18 12:20:46;;;;;;;18.50;5.78;;;205.40;1945.60;;;;;;4852207;29;20037;-80
2022/01/18 12:23:14;;;;;;;16.50;5.55;;;205.20;1945.60;;;;;;4855190;29;20026;-78
2022/01/18 12:26:03;;;;;;;19.95;5.25;;;204.90;1971.20;;;;;;4852771;29;20045;-82
2022/01/18 12:34:33;;;;;;;13.73;4.80;;;180.00;1971.20;;;;;;4910767;29;20036;-79
2022/01/18 12:37:08;;;;;;;15.55;5.32;;;179.90;1971.20;;;;;;4912185;29;20037;-80
2022/01/18 12:39:55;;;;;;;19.70;6.95;;;179.70;1971.20;;;;;;4910136;29;20055;-80
2022/01/18 12:44:58;;;;;;;23.40;7.25;;;179.60;2022.40;;;;;;4915459;29;20036;-80
2022/01/18 12:47:25;;;;;;;16.58;6.70;;;179.40;2022.40;;;;;;4911190;29;20469;-81
2022/01/18 12:49:54;;;;;;;17.88;6.70;;;179.60;2022.40;;;;;;4899488;29;20028;-76
2022/01/18 12:52:21;;;;;;;16.85;6.05;;;179.80;2022.40;;;;;;4901906;29;20080;-76
2022/01/18 12:54:48;;;;;;;17.58;5.40;;;179.80;1996.80;;;;;;4898562;29;20041;-76
2022/01/18 12:57:16;;;;;;;26.13;7.93;;;179.70;2022.40;;;;;;4895308;29;20564;-89
2022/01/18 13:00:00;;;;;;;19.23;7.68;;;179.90;2022.40;;;;;;4911366;29;20107;-82
2022/01/18 13:02:27;;;;;;;11.75;5.38;;;179.80;1996.80;;;;;;4907029;29;20092;-81
2022/01/18 13:05:04;;;;;;;12.98;5.40;;;179.60;2022.40;;;;;;4895610;29;20036;-78
2022/01/18 13:07:29;;;;;;;17.23;4.30;;;179.20;2073.60;;;;;;4916845;29;20092;-81
2022/01/18 13:09:59;;;;;;;;;;;154.50;2099.20;;;;;;4914218;29;20036;-83
2022/01/18 13:12:46;;;;;;;20.00;6.25;;;179.30;2099.20;;;;;;4908707;29;19907;-83
2022/01/18 13:15:22;;;;;;;14.40;6.60;;;179.30;2073.60;;;;;;4913704;29;20449;-80
2022/01/18 13:23:29;;;;;;;48.58;18.40;;;179.50;2048.00;;;;;;4917718;29;20039;-82
2022/01/18 13:25:59;;;;;;;33.22;13.52;;;179.50;2022.40;;;;;;4902079;29;20054;-82
2022/01/18 13:28:33;;;;;;;16.13;6.53;;;179.40;2048.00;;;;;;4918489;29;20036;-82
2022/01/18 13:31:19;;;;;;;16.85;5.65;;;154.50;2048.00;;;;;;4918889;29;20119;-79
2022/01/18 13:34:04;;;;;;;20.58;6.70;;;154.40;2048.00;;;;;;4918851;29;20080;-79
2022/01/18 13:36:32;;;;;;;34.60;15.52;;;154.30;2073.60;;;;;;4918818;29;20034;-81
2022/01/18 13:39:21;;;;;;;21.95;9.70;;;154.50;2048.00;;;;;;4891027;29;20178;-82
2022/01/18 13:41:47;;;;;;;21.83;7.85;;;179.40;2022.40;;;;;;4913204;29;20487;-79
2022/01/18 13:44:13;;;;;;;17.55;7.47;;;179.40;2048.00;;;;;;4894431;29;20047;-81
2022/01/18 13:46:39;;;;;;;21.45;8.50;;;179.30;2022.40;;;;;;4893175;29;20040;-82
2022/01/18 13:49:05;;;;;;;;;;;179.30;2022.40;;;;;;4907833;29;20032;-82
2022/01/18 13:51:31;;;;;;;17.23;6.90;;;154.50;2048.00;;;;;;4910966;29;19966;-82
2022/01/18 13:54:02;;;;;;;;;;;179.20;2073.60;;;;;;4907758;29;20124;-79
2022/01/18 13:56:27;;;;;;;26.50;10.45;;;179.40;2048.00;;;;;;4907714;29;20313;-82
2022/01/18 13:59:00;;;;;;;;;;;179.30;2048.00;;;;;;4908061;29;20024;-81